Crown Of Scandinavia — OXRA6 — position and weather

sailwx.info

Track history (hours):
 
Tides and Currents Weather Stations Pressure Air Temp Water Temp Dewpoint Dewpoint Depression Visibility Wind Speed Wind Dir Waves Ship Positions

Crown Of Scandinavia

Last reported at 2018-May-21 01:17 UTC. Time now 2018-May-21 01:32 UTC.
Position N 57°14' E 011°52'.

Length 171 m; draft 6.3 m.

Type: Ship. MMSI: 219592000.

Date/timePositionNaut miles runAvg speedWind from/ knotsBaromVisibWave heightAir tempDewpointWater temp
2018-May-21 01:17N 57°14' E 011°52'516.0
2018-May-21 01:00N 57°18' E 011°47'816.5
2018-May-21 00:31N 57°24' E 011°38'917.2
2018-May-21 00:01N 57°31' E 011°29'917.3
2018-May-20 23:31N 57°38' E 011°20'917.2
2018-May-20 23:01N 57°46' E 011°11'817.0
2018-May-20 22:31N 57°53' E 011°03'916.8
2018-May-20 21:59N 58°01' E 010°56'817.2
2018-May-20 21:31N 58°09' E 010°52'917.0
2018-May-20 21:00N 58°17' E 010°47'816.6
2018-May-20 20:30N 58°25' E 010°42'816.2
2018-May-20 20:01N 58°33' E 010°38'816.0
2018-May-20 19:30N 58°41' E 010°36'816.4
2018-May-20 19:01N 58°49' E 010°35'816.5
2018-May-20 18:31N 58°57' E 010°36'816.5
2018-May-20 18:01N 59°05' E 010°38'816.2
2018-May-20 17:31N 59°13' E 010°37'816.1
2018-May-20 17:00N 59°21' E 010°34'815.6
2018-May-20 16:31N 59°29' E 010°34'816.0
2018-May-20 16:01N 59°37' E 010°38'713.8
2018-May-20 15:30N 59°44' E 010°34'815.4
2018-May-20 15:00N 59°51' E 010°36'510.8
2018-May-20 14:30N 59°54' E 010°45'0 0.1
2018-May-20 14:00N 59°54' E 010°45'0 0.0
2018-May-20 13:29N 59°54' E 010°45'0 0.0
2018-May-20 12:59N 59°54' E 010°45'0 0.0
2018-May-20 12:29N 59°54' E 010°45'0 0.0
2018-May-20 11:59N 59°54' E 010°45'0 0.0
2018-May-20 11:29N 59°54' E 010°45'0 0.0
2018-May-20 10:59N 59°54' E 010°45'0 0.0
2018-May-20 10:29N 59°54' E 010°45'0 0.0
2018-May-20 09:59N 59°54' E 010°45'0 0.0
2018-May-20 09:29N 59°54' E 010°45'0 0.0
2018-May-20 08:59N 59°54' E 010°45'0 0.0
2018-May-20 08:29N 59°54' E 010°45'0 0.0
2018-May-20 07:59N 59°54' E 010°45'0 0.4
2018-May-20 07:30N 59°54' E 010°45'611.6
2018-May-20 07:00N 59°50' E 010°36'714.2
2018-May-20 06:31N 59°43' E 010°35'612.8
2018-May-20 06:00N 59°37' E 010°38'815.2
2018-May-20 05:30N 59°29' E 010°35'815.5
2018-May-20 05:00N 59°22' E 010°35'815.8
2018-May-20 04:30N 59°14' E 010°38'815.5
2018-May-20 04:00N 59°06' E 010°38'815.8
2018-May-20 03:30N 58°58' E 010°36'815.6
2018-May-20 03:00N 58°51' E 010°34'815.6
2018-May-20 02:30N 58°43' E 010°35'816.0
2018-May-20 02:00N 58°35' E 010°36'815.8
2018-May-20 01:30N 58°27' E 010°39'815.8
2018-May-20 01:00N 58°20' E 010°44'816.0
2018-May-20 00:30N 58°12' E 010°49'816.0
2018-May-20 00:00N 58°05' E 010°55'816.5
2018-May-19 23:30N 57°57' E 011°00'816.8
2018-May-19 23:00N 57°49' E 011°06'816.3
2018-May-19 22:30N 57°42' E 011°12'816.3
2018-May-19 22:00N 57°34' E 011°19'816.3
2018-May-19 21:30N 57°27' E 011°26'816.2
2018-May-19 21:00N 57°20' E 011°32'816.7
2018-May-19 20:30N 57°12' E 011°38'816.3
2018-May-19 20:00N 57°04' E 011°43'816.5
2018-May-19 19:30N 56°57' E 011°49'816.8
2018-May-19 19:00N 56°49' E 011°56'816.9
2018-May-19 18:30N 56°42' E 012°04'816.5
2018-May-19 18:00N 56°35' E 012°10'816.4
2018-May-19 17:30N 56°27' E 012°16'917.2
2018-May-19 17:00N 56°19' E 012°22'917.3
2018-May-19 16:30N 56°11' E 012°28'917.5
2018-May-19 16:00N 56°04' E 012°38'816.6
2018-May-19 15:30N 55°57' E 012°43'816.0
2018-May-19 15:00N 55°49' E 012°43'714.0
2018-May-19 14:30N 55°42' E 012°37'1 1.1
2018-May-19 13:59N 55°42' E 012°36'0 0.0
2018-May-19 13:29N 55°42' E 012°36'0 0.0
2018-May-19 12:59N 55°42' E 012°36'0 0.0
2018-May-19 12:29N 55°42' E 012°36'0 0.0
2018-May-19 11:59N 55°42' E 012°36'0 0.0
2018-May-19 11:29N 55°42' E 012°36'0 0.0
2018-May-19 10:59N 55°42' E 012°36'0 0.0
2018-May-19 10:29N 55°42' E 012°36'0 0.0
2018-May-19 09:59N 55°42' E 012°36'0 0.0
2018-May-19 09:29N 55°42' E 012°36'0 0.0
2018-May-19 08:59N 55°42' E 012°36'0 0.0
2018-May-19 08:29N 55°42' E 012°36'0 0.0
2018-May-19 07:59N 55°42' E 012°36'0 0.7
2018-May-19 07:30N 55°42' E 012°36'510.3
2018-May-19 07:01N 55°47' E 012°42'815.1
2018-May-19 06:31N 55°54' E 012°39'815.5
2018-May-19 06:01N 56°02' E 012°39'713.7
2018-May-19 05:31N 56°07' E 012°31'814.9
2018-May-19 05:00N 56°14' E 012°25'1615.5
2018-May-19 03:58N 56°29' E 012°16'4516.7
2018-May-19 01:16N 57°12' E 011°53'416.6
2018-May-19 01:01N 57°16' E 011°49'816.7
2018-May-19 00:31N 57°23' E 011°41'816.8
2018-May-19 00:01N 57°31' E 011°34'917.2
2018-May-18 23:31N 57°39' E 011°29'917.6
2018-May-18 23:01N 57°47' E 011°23'917.4
2018-May-18 22:31N 57°55' E 011°16'817.0
2018-May-18 22:01N 58°02' E 011°09'917.0
2018-May-18 21:30N 58°10' E 011°01'816.9
2018-May-18 21:01N 58°17' E 010°54'816.4
2018-May-18 20:30N 58°25' E 010°47'816.3
2018-May-18 20:01N 58°32' E 010°40'816.5
2018-May-18 19:31N 58°40' E 010°36'917.3
2018-May-18 19:01N 58°49' E 010°35'917.6
2018-May-18 18:31N 58°57' E 010°36'917.1
2018-May-18 18:01N 59°06' E 010°38'817.0
2018-May-18 17:31N 59°14' E 010°37'917.1
2018-May-18 17:01N 59°23' E 010°34'815.9
2018-May-18 16:31N 59°31' E 010°35'612.9
2018-May-18 16:00N 59°37' E 010°38'713.6
2018-May-18 15:30N 59°44' E 010°34'815.9
2018-May-18 15:00N 59°51' E 010°37'5 9.8
2018-May-18 14:30N 59°54' E 010°45'0 0.0
2018-May-18 13:58N 59°54' E 010°45'0 0.0
2018-May-18 13:28N 59°54' E 010°45'0 0.0
2018-May-18 12:58N 59°54' E 010°45'0 0.0
2018-May-18 12:28N 59°54' E 010°45'0 0.0
2018-May-18 11:58N 59°54' E 010°45'0 0.0
2018-May-18 11:28N 59°54' E 010°45'0 0.0
2018-May-18 10:58N 59°54' E 010°45'0 0.0
2018-May-18 10:31N 59°54' E 010°45'0 0.0
2018-May-18 09:58N 59°54' E 010°45'0 0.0
2018-May-18 09:28N 59°54' E 010°45'0 0.0
2018-May-18 08:58N 59°54' E 010°45'0 0.0
2018-May-18 08:28N 59°54' E 010°45'0 0.0
2018-May-18 08:01N 59°54' E 010°45'0 0.4
2018-May-18 07:28N 59°54' E 010°45'510.4
2018-May-18 07:00N 59°51' E 010°37'714.3
2018-May-18 06:30N 59°44' E 010°35'713.0
2018-May-18 06:00N 59°38' E 010°38'815.3
2018-May-18 05:31N 59°30' E 010°35'815.7
2018-May-18 05:00N 59°22' E 010°35'816.5
2018-May-18 04:31N 59°14' E 010°38'816.0
2018-May-18 04:00N 59°06' E 010°39'816.0
2018-May-18 03:31N 58°58' E 010°38'816.2
2018-May-18 03:00N 58°50' E 010°36'917.6
2018-May-18 02:30N 58°41' E 010°35'918.3
2018-May-18 02:01N 58°32' E 010°36'1018.5
2018-May-18 01:30N 58°23' E 010°42'918.2
2018-May-18 01:01N 58°15' E 010°48'918.2
2018-May-18 00:30N 58°06' E 010°54'918.2
2018-May-18 00:00N 57°58' E 010°60'917.1
2018-May-17 23:30N 57°50' E 011°05'917.2
2018-May-17 23:00N 57°42' E 011°11'917.1
2018-May-17 22:31N 57°34' E 011°19'917.0
2018-May-17 22:01N 57°27' E 011°27'917.0
2018-May-17 21:30N 57°19' E 011°33'816.8
2018-May-17 21:00N 57°11' E 011°38'816.5
2018-May-17 20:30N 57°03' E 011°43'1016.3
2018-May-17 19:53N 56°54' E 011°52'5016.5
2018-May-17 16:52N 56°09' E 012°30'616.2
2018-May-17 16:30N 56°05' E 012°37'815.4
2018-May-17 16:01N 55°58' E 012°43'815.2
2018-May-17 15:30N 55°50' E 012°44'714.7
2018-May-17 15:00N 55°44' E 012°39'2 4.8
2018-May-17 14:30N 55°42' E 012°36'0 0.0
2018-May-17 14:00N 55°42' E 012°36'0 0.0
2018-May-17 13:30N 55°42' E 012°36'0 0.0
2018-May-17 13:00N 55°42' E 012°36'0 0.0
2018-May-17 12:30N 55°42' E 012°36'0 0.0
2018-May-17 12:00N 55°42' E 012°36'0 0.0
2018-May-17 11:30N 55°42' E 012°36'0 0.0
2018-May-17 11:00N 55°42' E 012°36'0 0.0
2018-May-17 10:30N 55°42' E 012°36'0 0.0
2018-May-17 10:00N 55°42' E 012°36'0 0.0
2018-May-17 09:30N 55°42' E 012°36'0 0.0
2018-May-17 09:00N 55°42' E 012°36'0 0.0
2018-May-17 08:30N 55°42' E 012°36'0 0.0
2018-May-17 08:00N 55°42' E 012°36'0 0.8
2018-May-17 07:31N 55°42' E 012°36'511.0
2018-May-17 07:00N 55°47' E 012°42'815.4
2018-May-17 06:30N 55°54' E 012°39'815.9
2018-May-17 06:00N 56°02' E 012°39'816.3
2018-May-17 05:31N 56°08' E 012°29'815.8
2018-May-17 05:00N 56°15' E 012°22'815.6
2018-May-17 04:31N 56°23' E 012°20'816.2
2018-May-17 04:01N 56°31' E 012°15'816.4
2018-May-17 03:30N 56°39' E 012°11'816.5
2018-May-17 03:01N 56°46' E 012°06'816.7
2018-May-17 02:30N 56°54' E 012°02'1016.6
2018-May-17 01:54N 57°04' E 011°57'616.6
2018-May-17 01:30N 57°10' E 011°54'816.8
2018-May-17 01:00N 57°18' E 011°48'917.3
2018-May-17 00:30N 57°26' E 011°40'917.2
2018-May-17 00:00N 57°33' E 011°32'917.6
2018-May-16 23:30N 57°41' E 011°26'917.4
2018-May-16 23:00N 57°50' E 011°21'917.1
2018-May-16 22:30N 57°58' E 011°16'816.4
2018-May-16 22:01N 58°05' E 011°10'816.2
2018-May-16 21:30N 58°13' E 011°05'816.0
2018-May-16 21:01N 58°21' E 010°60'815.9
2018-May-16 20:31N 58°28' E 010°55'816.4
2018-May-16 20:00N 58°36' E 010°49'917.0
2018-May-16 19:30N 58°44' E 010°45'917.7
2018-May-16 19:00N 58°53' E 010°42'917.5
2018-May-16 18:30N 59°01' E 010°40'816.9
2018-May-16 18:00N 59°10' E 010°38'817.0
2018-May-16 17:31N 59°18' E 010°36'816.9
2018-May-16 17:00N 59°27' E 010°33'816.0
2018-May-16 16:30N 59°34' E 010°38'612.8
2018-May-16 16:01N 59°40' E 010°37'714.6
2018-May-16 15:31N 59°48' E 010°34'714.3
2018-May-16 15:00N 59°54' E 010°42'2 3.1
2018-May-16 14:30N 59°54' E 010°45'0 0.0
2018-May-16 13:59N 59°54' E 010°45'0 0.0
2018-May-16 13:29N 59°54' E 010°45'0 0.0
2018-May-16 12:59N 59°54' E 010°45'0 0.0
2018-May-16 12:29N 59°54' E 010°45'0 0.0
2018-May-16 11:59N 59°54' E 010°45'0 0.0
2018-May-16 11:29N 59°54' E 010°45'0 0.0
2018-May-16 10:59N 59°54' E 010°45'0 0.0
2018-May-16 10:29N 59°54' E 010°45'0 0.0
2018-May-16 09:59N 59°54' E 010°45'0 0.0
2018-May-16 09:29N 59°54' E 010°45'0 0.0
2018-May-16 08:59N 59°54' E 010°45'0 0.0
2018-May-16 08:29N 59°54' E 010°45'0 0.0
2018-May-16 07:59N 59°54' E 010°45'0 0.9
2018-May-16 07:31N 59°54' E 010°44'713.6
2018-May-16 07:00N 59°49' E 010°35'714.3
2018-May-16 06:31N 59°42' E 010°36'713.8
2018-May-16 06:01N 59°35' E 010°38'816.0
2018-May-16 05:31N 59°27' E 010°34'815.5
2018-May-16 05:00N 59°20' E 010°36'815.6
2018-May-16 04:31N 59°12' E 010°39'815.5
2018-May-16 04:00N 59°04' E 010°41'815.6
2018-May-16 03:31N 58°56' E 010°42'815.7
2018-May-16 03:01N 58°49' E 010°43'815.8
2018-May-16 02:30N 58°41' E 010°46'815.8
2018-May-16 02:01N 58°33' E 010°50'816.0
2018-May-16 01:30N 58°26' E 010°55'816.5
2018-May-16 01:01N 58°18' E 010°59'816.8
2018-May-16 00:30N 58°10' E 011°04'917.0
2018-May-16 00:00N 58°02' E 011°10'816.7
2018-May-15 23:30N 57°54' E 011°14'816.3
2018-May-15 23:00N 57°46' E 011°17'816.1
2018-May-15 22:31N 57°38' E 011°22'816.2
2018-May-15 22:00N 57°30' E 011°26'816.3
2018-May-15 21:31N 57°23' E 011°31'816.1
2018-May-15 21:00N 57°15' E 011°36'816.1
2018-May-15 20:30N 57°07' E 011°40'816.1
2018-May-15 20:00N 56°60' E 011°46'815.9
2018-May-15 19:30N 56°53' E 011°53'815.8
2018-May-15 19:00N 56°46' E 011°60'815.8
2018-May-15 18:30N 56°39' E 012°07'916.1
2018-May-15 17:55N 56°31' E 012°15'716.0
2018-May-15 17:30N 56°24' E 012°18'816.7
2018-May-15 17:01N 56°17' E 012°24'917.2
2018-May-15 16:30N 56°09' E 012°30'917.1
2018-May-15 16:01N 56°02' E 012°40'816.3
2018-May-15 15:31N 55°55' E 012°45'815.8
2018-May-15 15:01N 55°47' E 012°42'611.7
2018-May-15 14:30N 55°42' E 012°36'0 0.1
2018-May-15 14:00N 55°42' E 012°36'0 0.0
2018-May-15 13:27N 55°42' E 012°36'0 0.0
2018-May-15 13:00N 55°42' E 012°36'0 0.0
2018-May-15 12:30N 55°42' E 012°36'0 0.0
2018-May-15 12:00N 55°42' E 012°36'0 0.0
2018-May-15 11:30N 55°42' E 012°36'0 0.0
2018-May-15 11:00N 55°42' E 012°36'0 0.0
2018-May-15 10:30N 55°42' E 012°36'0 0.0
2018-May-15 10:00N 55°42' E 012°36'0 0.0
2018-May-15 09:30N 55°42' E 012°36'0 0.0
2018-May-15 09:00N 55°42' E 012°36'0 0.0
2018-May-15 08:30N 55°42' E 012°36'0 0.0
2018-May-15 08:00N 55°42' E 012°36'0 0.6
2018-May-15 07:30N 55°42' E 012°36'510.8
2018-May-15 07:00N 55°47' E 012°42'815.1
2018-May-15 06:30N 55°54' E 012°39'815.4
2018-May-15 06:00N 56°02' E 012°39'714.3
2018-May-15 05:30N 56°07' E 012°31'815.2
2018-May-15 05:00N 56°14' E 012°24'815.8
2018-May-15 04:30N 56°21' E 012°18'815.7
2018-May-15 04:00N 56°28' E 012°15'816.6
2018-May-15 03:30N 56°37' E 012°12'3916.9
2018-May-15 01:13N 57°14' E 011°52'416.9
2018-May-15 01:00N 57°17' E 011°49'816.8
2018-May-15 00:30N 57°24' E 011°41'816.5
2018-May-15 00:00N 57°32' E 011°35'816.6
2018-May-14 23:30N 57°39' E 011°29'816.8
2018-May-14 23:00N 57°47' E 011°23'816.7
2018-May-14 22:30N 57°55' E 011°18'816.3
2018-May-14 22:00N 58°03' E 011°12'815.8
2018-May-14 21:30N 58°10' E 011°08'815.5
2018-May-14 21:00N 58°17' E 011°03'815.9
2018-May-14 20:30N 58°25' E 010°57'816.1
2018-May-14 20:00N 58°33' E 010°52'816.0
2018-May-14 19:31N 58°40' E 010°46'816.1
2018-May-14 19:00N 58°48' E 010°44'816.7
2018-May-14 18:30N 58°56' E 010°42'816.9
2018-May-14 18:00N 59°04' E 010°40'917.1
2018-May-14 17:30N 59°13' E 010°38'917.1
2018-May-14 17:00N 59°21' E 010°34'816.7
2018-May-14 16:30N 59°30' E 010°34'816.0
2018-May-14 16:00N 59°38' E 010°38'713.4
2018-May-14 15:31N 59°44' E 010°33'816.0
2018-May-14 15:00N 59°52' E 010°37'5 9.1
2018-May-14 14:31N 59°54' E 010°45'0 0.0
2018-May-14 14:00N 59°54' E 010°45'0 0.0
2018-May-14 13:30N 59°54' E 010°45'0 0.0
2018-May-14 13:00N 59°54' E 010°45'0 0.0
2018-May-14 12:30N 59°54' E 010°45'0 0.0
2018-May-14 12:00N 59°54' E 010°45'0 0.0
2018-May-14 11:30N 59°54' E 010°45'0 0.0
2018-May-14 11:00N 59°54' E 010°45'0 0.0
2018-May-14 10:30N 59°54' E 010°45'0 0.0
2018-May-14 10:00N 59°54' E 010°45'0 0.0
2018-May-14 09:30N 59°54' E 010°45'0 0.0
2018-May-14 09:00N 59°54' E 010°45'0 0.0
2018-May-14 08:30N 59°54' E 010°45'0 0.0
2018-May-14 08:00N 59°54' E 010°45'1 1.2
2018-May-14 07:31N 59°54' E 010°44'714.2
2018-May-14 07:01N 59°48' E 010°35'714.0
2018-May-14 06:31N 59°41' E 010°36'713.9
2018-May-14 06:00N 59°35' E 010°38'815.5
2018-May-14 05:30N 59°27' E 010°34'815.3
2018-May-14 05:01N 59°20' E 010°36'815.1
2018-May-14 04:30N 59°12' E 010°39'715.0
2018-May-14 04:00N 59°05' E 010°41'815.3
2018-May-14 03:30N 58°57' E 010°43'815.5
2018-May-14 03:00N 58°49' E 010°45'815.9
2018-May-14 02:30N 58°42' E 010°47'816.3
2018-May-14 02:00N 58°34' E 010°50'816.6
2018-May-14 01:30N 58°26' E 010°55'816.7
2018-May-14 01:00N 58°18' E 010°60'917.2
2018-May-14 00:30N 58°09' E 011°05'917.4
2018-May-14 00:00N 58°01' E 011°10'816.4
2018-May-13 23:30N 57°53' E 011°14'816.2
2018-May-13 23:00N 57°46' E 011°19'816.2
2018-May-13 22:30N 57°38' E 011°23'816.0
2018-May-13 22:00N 57°30' E 011°27'816.1
2018-May-13 21:30N 57°22' E 011°31'815.9
2018-May-13 21:00N 57°15' E 011°36'816.0
2018-May-13 20:30N 57°07' E 011°41'816.2
2018-May-13 20:00N 57°00' E 011°47'816.1
2018-May-13 19:30N 56°53' E 011°54'816.0
2018-May-13 19:00N 56°46' E 012°00'3816.4
2018-May-13 16:41N 56°11' E 012°29'317.8
2018-May-13 16:30N 56°08' E 012°32'917.5
2018-May-13 16:00N 56°01' E 012°40'816.5
2018-May-13 15:30N 55°53' E 012°44'815.5
2018-May-13 15:00N 55°46' E 012°41'5 9.2
2018-May-13 14:30N 55°42' E 012°36'0 0.0
2018-May-13 14:00N 55°42' E 012°36'0 0.0
2018-May-13 13:29N 55°42' E 012°36'0 0.0
2018-May-13 12:59N 55°42' E 012°36'0 0.0
2018-May-13 12:29N 55°42' E 012°36'0 0.0
2018-May-13 11:59N 55°42' E 012°36'0 0.0
2018-May-13 11:29N 55°42' E 012°36'0 0.0
2018-May-13 10:59N 55°42' E 012°36'0 0.0
2018-May-13 10:26N 55°42' E 012°36'0 0.0
2018-May-13 09:59N 55°42' E 012°36'0 0.0
2018-May-13 09:29N 55°42' E 012°36'0 0.0
2018-May-13 08:59N 55°42' E 012°36'0 0.0
2018-May-13 08:29N 55°42' E 012°36'0 0.0
2018-May-13 07:59N 55°42' E 012°36'0 0.6
2018-May-13 07:30N 55°42' E 012°36'5 9.7
2018-May-13 07:01N 55°46' E 012°42'714.9
2018-May-13 06:30N 55°53' E 012°39'815.3
2018-May-13 06:00N 56°01' E 012°40'714.2
2018-May-13 05:30N 56°07' E 012°32'815.0
2018-May-13 04:58N 56°14' E 012°26'716.3
2018-May-13 04:30N 56°21' E 012°21'5617.1
2018-May-13 01:14N 57°14' E 011°51'417.1
2018-May-13 01:00N 57°18' E 011°48'816.8
2018-May-13 00:30N 57°25' E 011°40'816.9
2018-May-13 00:00N 57°32' E 011°32'917.6
2018-May-12 23:30N 57°41' E 011°27'917.5
2018-May-12 23:00N 57°49' E 011°22'816.4
2018-May-12 22:30N 57°56' E 011°15'815.7
2018-May-12 22:00N 58°03' E 011°09'815.8
2018-May-12 21:30N 58°11' E 011°04'815.9
2018-May-12 21:00N 58°19' E 011°00'816.0
2018-May-12 20:30N 58°26' E 010°56'815.8
2018-May-12 20:00N 58°34' E 010°51'815.8
2018-May-12 19:30N 58°41' E 010°45'815.9
2018-May-12 19:00N 58°49' E 010°43'816.0
2018-May-12 18:30N 58°57' E 010°41'816.4
2018-May-12 18:00N 59°05' E 010°39'816.5
2018-May-12 17:30N 59°13' E 010°38'816.2
2018-May-12 17:00N 59°21' E 010°35'815.8
2018-May-12 16:30N 59°29' E 010°34'713.3
2018-May-12 16:01N 59°35' E 010°38'713.4
2018-May-12 15:31N 59°42' E 010°35'815.2
2018-May-12 15:00N 59°49' E 010°34'713.5
2018-May-12 14:30N 59°54' E 010°44'0 0.6
2018-May-12 13:59N 59°54' E 010°45'0 0.0
2018-May-12 13:29N 59°54' E 010°45'0 0.0
2018-May-12 12:59N 59°54' E 010°45'0 0.0
2018-May-12 12:29N 59°54' E 010°45'0 0.0
2018-May-12 11:59N 59°54' E 010°45'0 0.0
2018-May-12 11:29N 59°54' E 010°45'0 0.0
2018-May-12 10:59N 59°54' E 010°45'0 0.0
2018-May-12 10:29N 59°54' E 010°45'0 0.0
2018-May-12 09:59N 59°54' E 010°45'0 0.0
2018-May-12 09:29N 59°54' E 010°45'0 0.0
2018-May-12 08:59N 59°54' E 010°45'0 0.0
2018-May-12 08:29N 59°54' E 010°45'0 0.0
2018-May-12 07:59N 59°54' E 010°45'0 0.9
2018-May-12 07:30N 59°54' E 010°44'714.2
2018-May-12 07:00N 59°49' E 010°35'714.1
2018-May-12 06:31N 59°42' E 010°36'713.5
2018-May-12 06:00N 59°35' E 010°38'815.8
2018-May-12 05:30N 59°27' E 010°34'816.1
2018-May-12 05:00N 59°19' E 010°36'816.4
2018-May-12 04:30N 59°11' E 010°39'816.1
2018-May-12 04:00N 59°03' E 010°38'815.9
2018-May-12 03:30N 58°55' E 010°36'815.9
2018-May-12 03:00N 58°47' E 010°35'816.6
2018-May-12 02:30N 58°39' E 010°36'816.9
2018-May-12 02:00N 58°31' E 010°37'816.6
2018-May-12 01:30N 58°23' E 010°42'816.4
2018-May-12 01:00N 58°15' E 010°48'816.5
2018-May-12 00:30N 58°07' E 010°53'816.3
2018-May-12 00:00N 57°60' E 010°58'816.6
2018-May-11 23:30N 57°52' E 011°04'816.3
2018-May-11 23:00N 57°45' E 011°13'815.7
2018-May-11 22:30N 57°39' E 011°20'816.0
2018-May-11 22:00N 57°31' E 011°24'815.9
2018-May-11 21:30N 57°24' E 011°30'815.9
2018-May-11 21:00N 57°16' E 011°34'816.4
2018-May-11 20:30N 57°08' E 011°40'816.5
2018-May-11 20:00N 57°01' E 011°46'816.5
2018-May-11 19:30N 56°53' E 011°52'816.2
2018-May-11 19:00N 56°46' E 011°59'816.4
2018-May-11 18:30N 56°39' E 012°06'816.1
2018-May-11 18:00N 56°32' E 012°13'1016.3
2018-May-11 17:23N 56°22' E 012°20'816.3
2018-May-11 16:52N 56°14' E 012°26'616.2
2018-May-11 16:30N 56°09' E 012°31'815.8
2018-May-11 16:00N 56°03' E 012°39'815.9
2018-May-11 15:30N 55°55' E 012°44'815.4
2018-May-11 15:00N 55°48' E 012°43'612.5
2018-May-11 14:30N 55°43' E 012°37'1 1.5
2018-May-11 14:00N 55°42' E 012°36'0 0.0
2018-May-11 13:30N 55°42' E 012°36'0 0.0
2018-May-11 13:00N 55°42' E 012°36'0 0.0
2018-May-11 12:30N 55°42' E 012°36'0 0.0
2018-May-11 12:00N 55°42' E 012°36'0 0.0
2018-May-11 11:30N 55°42' E 012°36'0 0.0
2018-May-11 11:00N 55°42' E 012°36'0 0.0
2018-May-11 10:30N 55°42' E 012°36'0 0.0
2018-May-11 10:00N 55°42' E 012°36'0 0.0
2018-May-11 09:30N 55°42' E 012°36'0 0.0
2018-May-11 09:00N 55°42' E 012°36'0 0.0
2018-May-11 08:27N 55°42' E 012°36'0 0.0
2018-May-11 08:00N 55°42' E 012°36'0 1.0
2018-May-11 07:30N 55°42' E 012°37'611.5
2018-May-11 07:01N 55°47' E 012°42'815.5
2018-May-11 06:31N 55°55' E 012°39'815.6
2018-May-11 06:01N 56°03' E 012°39'816.3
2018-May-11 05:30N 56°09' E 012°29'4016.1
2018-May-11 03:02N 56°46' E 012°06'016.4
2018-May-11 03:00N 56°47' E 012°06'2816.5
2018-May-11 01:18N 57°14' E 011°52'  
Track history (hours):
 
Tides and Currents Weather Stations Pressure Air Temp Water Temp Dewpoint Dewpoint Depression Visibility Wind Speed Wind Dir Waves Ship Positions

Crown Of Scandinavia

Last reported at 2018-May-21 01:17 UTC. Time now 2018-May-21 01:32 UTC.
Position N 57°14' E 011°52'.

Length 171 m; draft 6.3 m.

Type: Ship. MMSI: 219592000.

Date/timePositionNaut miles runAvg speedWind from/ knotsBaromVisibWave heightAir tempDewpointWater temp
2018-May-21 01:17N 57°14' E 011°52'516.0
2018-May-21 01:00N 57°18' E 011°47'816.5
2018-May-21 00:31N 57°24' E 011°38'917.2
2018-May-21 00:01N 57°31' E 011°29'917.3
2018-May-20 23:31N 57°38' E 011°20'917.2
2018-May-20 23:01N 57°46' E 011°11'817.0
2018-May-20 22:31N 57°53' E 011°03'916.8
2018-May-20 21:59N 58°01' E 010°56'817.2
2018-May-20 21:31N 58°09' E 010°52'917.0
2018-May-20 21:00N 58°17' E 010°47'816.6
2018-May-20 20:30N 58°25' E 010°42'816.2
2018-May-20 20:01N 58°33' E 010°38'816.0
2018-May-20 19:30N 58°41' E 010°36'816.4
2018-May-20 19:01N 58°49' E 010°35'816.5
2018-May-20 18:31N 58°57' E 010°36'816.5
2018-May-20 18:01N 59°05' E 010°38'816.2
2018-May-20 17:31N 59°13' E 010°37'816.1
2018-May-20 17:00N 59°21' E 010°34'815.6
2018-May-20 16:31N 59°29' E 010°34'816.0
2018-May-20 16:01N 59°37' E 010°38'713.8
2018-May-20 15:30N 59°44' E 010°34'815.4
2018-May-20 15:00N 59°51' E 010°36'510.8
2018-May-20 14:30N 59°54' E 010°45'0 0.1
2018-May-20 14:00N 59°54' E 010°45'0 0.0
2018-May-20 13:29N 59°54' E 010°45'0 0.0
2018-May-20 12:59N 59°54' E 010°45'0 0.0
2018-May-20 12:29N 59°54' E 010°45'0 0.0
2018-May-20 11:59N 59°54' E 010°45'0 0.0
2018-May-20 11:29N 59°54' E 010°45'0 0.0
2018-May-20 10:59N 59°54' E 010°45'0 0.0
2018-May-20 10:29N 59°54' E 010°45'0 0.0
2018-May-20 09:59N 59°54' E 010°45'0 0.0
2018-May-20 09:29N 59°54' E 010°45'0 0.0
2018-May-20 08:59N 59°54' E 010°45'0 0.0
2018-May-20 08:29N 59°54' E 010°45'0 0.0
2018-May-20 07:59N 59°54' E 010°45'0 0.4
2018-May-20 07:30N 59°54' E 010°45'611.6
2018-May-20 07:00N 59°50' E 010°36'714.2
2018-May-20 06:31N 59°43' E 010°35'612.8
2018-May-20 06:00N 59°37' E 010°38'815.2
2018-May-20 05:30N 59°29' E 010°35'815.5
2018-May-20 05:00N 59°22' E 010°35'815.8
2018-May-20 04:30N 59°14' E 010°38'815.5
2018-May-20 04:00N 59°06' E 010°38'815.8
2018-May-20 03:30N 58°58' E 010°36'815.6
2018-May-20 03:00N 58°51' E 010°34'815.6
2018-May-20 02:30N 58°43' E 010°35'816.0
2018-May-20 02:00N 58°35' E 010°36'815.8
2018-May-20 01:30N 58°27' E 010°39'815.8
2018-May-20 01:00N 58°20' E 010°44'816.0
2018-May-20 00:30N 58°12' E 010°49'816.0
2018-May-20 00:00N 58°05' E 010°55'816.5
2018-May-19 23:30N 57°57' E 011°00'816.8
2018-May-19 23:00N 57°49' E 011°06'816.3
2018-May-19 22:30N 57°42' E 011°12'816.3
2018-May-19 22:00N 57°34' E 011°19'816.3
2018-May-19 21:30N 57°27' E 011°26'816.2
2018-May-19 21:00N 57°20' E 011°32'816.7
2018-May-19 20:30N 57°12' E 011°38'816.3
2018-May-19 20:00N 57°04' E 011°43'816.5
2018-May-19 19:30N 56°57' E 011°49'816.8
2018-May-19 19:00N 56°49' E 011°56'816.9
2018-May-19 18:30N 56°42' E 012°04'816.5
2018-May-19 18:00N 56°35' E 012°10'816.4
2018-May-19 17:30N 56°27' E 012°16'917.2
2018-May-19 17:00N 56°19' E 012°22'917.3
2018-May-19 16:30N 56°11' E 012°28'917.5
2018-May-19 16:00N 56°04' E 012°38'816.6
2018-May-19 15:30N 55°57' E 012°43'816.0
2018-May-19 15:00N 55°49' E 012°43'714.0
2018-May-19 14:30N 55°42' E 012°37'1 1.1
2018-May-19 13:59N 55°42' E 012°36'0 0.0
2018-May-19 13:29N 55°42' E 012°36'0 0.0
2018-May-19 12:59N 55°42' E 012°36'0 0.0
2018-May-19 12:29N 55°42' E 012°36'0 0.0
2018-May-19 11:59N 55°42' E 012°36'0 0.0
2018-May-19 11:29N 55°42' E 012°36'0 0.0
2018-May-19 10:59N 55°42' E 012°36'0 0.0
2018-May-19 10:29N 55°42' E 012°36'0 0.0
2018-May-19 09:59N 55°42' E 012°36'0 0.0
2018-May-19 09:29N 55°42' E 012°36'0 0.0
2018-May-19 08:59N 55°42' E 012°36'0 0.0
2018-May-19 08:29N 55°42' E 012°36'0 0.0
2018-May-19 07:59N 55°42' E 012°36'0 0.7
2018-May-19 07:30N 55°42' E 012°36'510.3
2018-May-19 07:01N 55°47' E 012°42'815.1
2018-May-19 06:31N 55°54' E 012°39'815.5
2018-May-19 06:01N 56°02' E 012°39'713.7
2018-May-19 05:31N 56°07' E 012°31'814.9
2018-May-19 05:00N 56°14' E 012°25'1615.5
2018-May-19 03:58N 56°29' E 012°16'4516.7
2018-May-19 01:16N 57°12' E 011°53'416.6
2018-May-19 01:01N 57°16' E 011°49'816.7
2018-May-19 00:31N 57°23' E 011°41'816.8
2018-May-19 00:01N 57°31' E 011°34'917.2
2018-May-18 23:31N 57°39' E 011°29'917.6
2018-May-18 23:01N 57°47' E 011°23'917.4
2018-May-18 22:31N 57°55' E 011°16'817.0
2018-May-18 22:01N 58°02' E 011°09'917.0
2018-May-18 21:30N 58°10' E 011°01'816.9
2018-May-18 21:01N 58°17' E 010°54'816.4
2018-May-18 20:30N 58°25' E 010°47'816.3
2018-May-18 20:01N 58°32' E 010°40'816.5
2018-May-18 19:31N 58°40' E 010°36'917.3
2018-May-18 19:01N 58°49' E 010°35'917.6
2018-May-18 18:31N 58°57' E 010°36'917.1
2018-May-18 18:01N 59°06' E 010°38'817.0
2018-May-18 17:31N 59°14' E 010°37'917.1
2018-May-18 17:01N 59°23' E 010°34'815.9
2018-May-18 16:31N 59°31' E 010°35'612.9
2018-May-18 16:00N 59°37' E 010°38'713.6
2018-May-18 15:30N 59°44' E 010°34'815.9
2018-May-18 15:00N 59°51' E 010°37'5 9.8
2018-May-18 14:30N 59°54' E 010°45'0 0.0
2018-May-18 13:58N 59°54' E 010°45'0 0.0
2018-May-18 13:28N 59°54' E 010°45'0 0.0
2018-May-18 12:58N 59°54' E 010°45'0 0.0
2018-May-18 12:28N 59°54' E 010°45'0 0.0
2018-May-18 11:58N 59°54' E 010°45'0 0.0
2018-May-18 11:28N 59°54' E 010°45'0 0.0
2018-May-18 10:58N 59°54' E 010°45'0 0.0
2018-May-18 10:31N 59°54' E 010°45'0 0.0
2018-May-18 09:58N 59°54' E 010°45'0 0.0
2018-May-18 09:28N 59°54' E 010°45'0 0.0
2018-May-18 08:58N 59°54' E 010°45'0 0.0
2018-May-18 08:28N 59°54' E 010°45'0 0.0
2018-May-18 08:01N 59°54' E 010°45'0 0.4
2018-May-18 07:28N 59°54' E 010°45'510.4
2018-May-18 07:00N 59°51' E 010°37'714.3
2018-May-18 06:30N 59°44' E 010°35'713.0
2018-May-18 06:00N 59°38' E 010°38'815.3
2018-May-18 05:31N 59°30' E 010°35'815.7
2018-May-18 05:00N 59°22' E 010°35'816.5
2018-May-18 04:31N 59°14' E 010°38'816.0
2018-May-18 04:00N 59°06' E 010°39'816.0
2018-May-18 03:31N 58°58' E 010°38'816.2
2018-May-18 03:00N 58°50' E 010°36'917.6
2018-May-18 02:30N 58°41' E 010°35'918.3
2018-May-18 02:01N 58°32' E 010°36'1018.5
2018-May-18 01:30N 58°23' E 010°42'918.2
2018-May-18 01:01N 58°15' E 010°48'918.2
2018-May-18 00:30N 58°06' E 010°54'918.2
2018-May-18 00:00N 57°58' E 010°60'917.1
2018-May-17 23:30N 57°50' E 011°05'917.2
2018-May-17 23:00N 57°42' E 011°11'917.1
2018-May-17 22:31N 57°34' E 011°19'917.0
2018-May-17 22:01N 57°27' E 011°27'917.0
2018-May-17 21:30N 57°19' E 011°33'816.8
2018-May-17 21:00N 57°11' E 011°38'816.5
2018-May-17 20:30N 57°03' E 011°43'1016.3
2018-May-17 19:53N 56°54' E 011°52'5016.5
2018-May-17 16:52N 56°09' E 012°30'616.2
2018-May-17 16:30N 56°05' E 012°37'815.4
2018-May-17 16:01N 55°58' E 012°43'815.2
2018-May-17 15:30N 55°50' E 012°44'714.7
2018-May-17 15:00N 55°44' E 012°39'2 4.8
2018-May-17 14:30N 55°42' E 012°36'0 0.0
2018-May-17 14:00N 55°42' E 012°36'0 0.0
2018-May-17 13:30N 55°42' E 012°36'0 0.0
2018-May-17 13:00N 55°42' E 012°36'0 0.0
2018-May-17 12:30N 55°42' E 012°36'0 0.0
2018-May-17 12:00N 55°42' E 012°36'0 0.0
2018-May-17 11:30N 55°42' E 012°36'0 0.0
2018-May-17 11:00N 55°42' E 012°36'0 0.0
2018-May-17 10:30N 55°42' E 012°36'0 0.0
2018-May-17 10:00N 55°42' E 012°36'0 0.0
2018-May-17 09:30N 55°42' E 012°36'0 0.0
2018-May-17 09:00N 55°42' E 012°36'0 0.0
2018-May-17 08:30N 55°42' E 012°36'0 0.0
2018-May-17 08:00N 55°42' E 012°36'0 0.8
2018-May-17 07:31N 55°42' E 012°36'511.0
2018-May-17 07:00N 55°47' E 012°42'815.4
2018-May-17 06:30N 55°54' E 012°39'815.9
2018-May-17 06:00N 56°02' E 012°39'816.3
2018-May-17 05:31N 56°08' E 012°29'815.8
2018-May-17 05:00N 56°15' E 012°22'815.6
2018-May-17 04:31N 56°23' E 012°20'816.2
2018-May-17 04:01N 56°31' E 012°15'816.4
2018-May-17 03:30N 56°39' E 012°11'816.5
2018-May-17 03:01N 56°46' E 012°06'816.7
2018-May-17 02:30N 56°54' E 012°02'1016.6
2018-May-17 01:54N 57°04' E 011°57'616.6
2018-May-17 01:30N 57°10' E 011°54'816.8
2018-May-17 01:00N 57°18' E 011°48'917.3
2018-May-17 00:30N 57°26' E 011°40'917.2
2018-May-17 00:00N 57°33' E 011°32'917.6
2018-May-16 23:30N 57°41' E 011°26'917.4
2018-May-16 23:00N 57°50' E 011°21'917.1
2018-May-16 22:30N 57°58' E 011°16'816.4
2018-May-16 22:01N 58°05' E 011°10'816.2
2018-May-16 21:30N 58°13' E 011°05'816.0
2018-May-16 21:01N 58°21' E 010°60'815.9
2018-May-16 20:31N 58°28' E 010°55'816.4
2018-May-16 20:00N 58°36' E 010°49'917.0
2018-May-16 19:30N 58°44' E 010°45'917.7
2018-May-16 19:00N 58°53' E 010°42'917.5
2018-May-16 18:30N 59°01' E 010°40'816.9
2018-May-16 18:00N 59°10' E 010°38'817.0
2018-May-16 17:31N 59°18' E 010°36'816.9
2018-May-16 17:00N 59°27' E 010°33'816.0
2018-May-16 16:30N 59°34' E 010°38'612.8
2018-May-16 16:01N 59°40' E 010°37'714.6
2018-May-16 15:31N 59°48' E 010°34'714.3
2018-May-16 15:00N 59°54' E 010°42'2 3.1
2018-May-16 14:30N 59°54' E 010°45'0 0.0
2018-May-16 13:59N 59°54' E 010°45'0 0.0
2018-May-16 13:29N 59°54' E 010°45'0 0.0
2018-May-16 12:59N 59°54' E 010°45'0 0.0
2018-May-16 12:29N 59°54' E 010°45'0 0.0
2018-May-16 11:59N 59°54' E 010°45'0 0.0
2018-May-16 11:29N 59°54' E 010°45'0 0.0
2018-May-16 10:59N 59°54' E 010°45'0 0.0
2018-May-16 10:29N 59°54' E 010°45'0 0.0
2018-May-16 09:59N 59°54' E 010°45'0 0.0
2018-May-16 09:29N 59°54' E 010°45'0 0.0
2018-May-16 08:59N 59°54' E 010°45'0 0.0
2018-May-16 08:29N 59°54' E 010°45'0 0.0
2018-May-16 07:59N 59°54' E 010°45'0 0.9
2018-May-16 07:31N 59°54' E 010°44'713.6
2018-May-16 07:00N 59°49' E 010°35'714.3
2018-May-16 06:31N 59°42' E 010°36'713.8
2018-May-16 06:01N 59°35' E 010°38'816.0
2018-May-16 05:31N 59°27' E 010°34'815.5
2018-May-16 05:00N 59°20' E 010°36'815.6
2018-May-16 04:31N 59°12' E 010°39'815.5
2018-May-16 04:00N 59°04' E 010°41'815.6
2018-May-16 03:31N 58°56' E 010°42'815.7
2018-May-16 03:01N 58°49' E 010°43'815.8
2018-May-16 02:30N 58°41' E 010°46'815.8
2018-May-16 02:01N 58°33' E 010°50'816.0
2018-May-16 01:30N 58°26' E 010°55'816.5
2018-May-16 01:01N 58°18' E 010°59'816.8
2018-May-16 00:30N 58°10' E 011°04'917.0
2018-May-16 00:00N 58°02' E 011°10'816.7
2018-May-15 23:30N 57°54' E 011°14'816.3
2018-May-15 23:00N 57°46' E 011°17'816.1
2018-May-15 22:31N 57°38' E 011°22'816.2
2018-May-15 22:00N 57°30' E 011°26'816.3
2018-May-15 21:31N 57°23' E 011°31'816.1
2018-May-15 21:00N 57°15' E 011°36'816.1
2018-May-15 20:30N 57°07' E 011°40'816.1
2018-May-15 20:00N 56°60' E 011°46'815.9
2018-May-15 19:30N 56°53' E 011°53'815.8
2018-May-15 19:00N 56°46' E 011°60'815.8
2018-May-15 18:30N 56°39' E 012°07'916.1
2018-May-15 17:55N 56°31' E 012°15'716.0
2018-May-15 17:30N 56°24' E 012°18'816.7
2018-May-15 17:01N 56°17' E 012°24'917.2
2018-May-15 16:30N 56°09' E 012°30'917.1
2018-May-15 16:01N 56°02' E 012°40'816.3
2018-May-15 15:31N 55°55' E 012°45'815.8
2018-May-15 15:01N 55°47' E 012°42'611.7
2018-May-15 14:30N 55°42' E 012°36'0 0.1
2018-May-15 14:00N 55°42' E 012°36'0 0.0
2018-May-15 13:27N 55°42' E 012°36'0 0.0
2018-May-15 13:00N 55°42' E 012°36'0 0.0
2018-May-15 12:30N 55°42' E 012°36'0 0.0
2018-May-15 12:00N 55°42' E 012°36'0 0.0
2018-May-15 11:30N 55°42' E 012°36'0 0.0
2018-May-15 11:00N 55°42' E 012°36'0 0.0
2018-May-15 10:30N 55°42' E 012°36'0 0.0
2018-May-15 10:00N 55°42' E 012°36'0 0.0
2018-May-15 09:30N 55°42' E 012°36'0 0.0
2018-May-15 09:00N 55°42' E 012°36'0 0.0
2018-May-15 08:30N 55°42' E 012°36'0 0.0
2018-May-15 08:00N 55°42' E 012°36'0 0.6
2018-May-15 07:30N 55°42' E 012°36'510.8
2018-May-15 07:00N 55°47' E 012°42'815.1
2018-May-15 06:30N 55°54' E 012°39'815.4
2018-May-15 06:00N 56°02' E 012°39'714.3
2018-May-15 05:30N 56°07' E 012°31'815.2
2018-May-15 05:00N 56°14' E 012°24'815.8
2018-May-15 04:30N 56°21' E 012°18'815.7
2018-May-15 04:00N 56°28' E 012°15'816.6
2018-May-15 03:30N 56°37' E 012°12'3916.9
2018-May-15 01:13N 57°14' E 011°52'416.9
2018-May-15 01:00N 57°17' E 011°49'816.8
2018-May-15 00:30N 57°24' E 011°41'816.5
2018-May-15 00:00N 57°32' E 011°35'816.6
2018-May-14 23:30N 57°39' E 011°29'816.8
2018-May-14 23:00N 57°47' E 011°23'816.7
2018-May-14 22:30N 57°55' E 011°18'816.3
2018-May-14 22:00N 58°03' E 011°12'815.8
2018-May-14 21:30N 58°10' E 011°08'815.5
2018-May-14 21:00N 58°17' E 011°03'815.9
2018-May-14 20:30N 58°25' E 010°57'816.1
2018-May-14 20:00N 58°33' E 010°52'816.0
2018-May-14 19:31N 58°40' E 010°46'816.1
2018-May-14 19:00N 58°48' E 010°44'816.7
2018-May-14 18:30N 58°56' E 010°42'816.9
2018-May-14 18:00N 59°04' E 010°40'917.1
2018-May-14 17:30N 59°13' E 010°38'917.1
2018-May-14 17:00N 59°21' E 010°34'816.7
2018-May-14 16:30N 59°30' E 010°34'816.0
2018-May-14 16:00N 59°38' E 010°38'713.4
2018-May-14 15:31N 59°44' E 010°33'816.0
2018-May-14 15:00N 59°52' E 010°37'5 9.1
2018-May-14 14:31N 59°54' E 010°45'0 0.0
2018-May-14 14:00N 59°54' E 010°45'0 0.0
2018-May-14 13:30N 59°54' E 010°45'0 0.0
2018-May-14 13:00N 59°54' E 010°45'0 0.0
2018-May-14 12:30N 59°54' E 010°45'0 0.0
2018-May-14 12:00N 59°54' E 010°45'0 0.0
2018-May-14 11:30N 59°54' E 010°45'0 0.0
2018-May-14 11:00N 59°54' E 010°45'0 0.0
2018-May-14 10:30N 59°54' E 010°45'0 0.0
2018-May-14 10:00N 59°54' E 010°45'0 0.0
2018-May-14 09:30N 59°54' E 010°45'0 0.0
2018-May-14 09:00N 59°54' E 010°45'0 0.0
2018-May-14 08:30N 59°54' E 010°45'0 0.0
2018-May-14 08:00N 59°54' E 010°45'1 1.2
2018-May-14 07:31N 59°54' E 010°44'714.2
2018-May-14 07:01N 59°48' E 010°35'714.0
2018-May-14 06:31N 59°41' E 010°36'713.9
2018-May-14 06:00N 59°35' E 010°38'815.5
2018-May-14 05:30N 59°27' E 010°34'815.3
2018-May-14 05:01N 59°20' E 010°36'815.1
2018-May-14 04:30N 59°12' E 010°39'715.0
2018-May-14 04:00N 59°05' E 010°41'815.3
2018-May-14 03:30N 58°57' E 010°43'815.5
2018-May-14 03:00N 58°49' E 010°45'815.9
2018-May-14 02:30N 58°42' E 010°47'816.3
2018-May-14 02:00N 58°34' E 010°50'816.6
2018-May-14 01:30N 58°26' E 010°55'816.7
2018-May-14 01:00N 58°18' E 010°60'917.2
2018-May-14 00:30N 58°09' E 011°05'917.4
2018-May-14 00:00N 58°01' E 011°10'816.4
2018-May-13 23:30N 57°53' E 011°14'816.2
2018-May-13 23:00N 57°46' E 011°19'816.2
2018-May-13 22:30N 57°38' E 011°23'816.0
2018-May-13 22:00N 57°30' E 011°27'816.1
2018-May-13 21:30N 57°22' E 011°31'815.9
2018-May-13 21:00N 57°15' E 011°36'816.0
2018-May-13 20:30N 57°07' E 011°41'816.2
2018-May-13 20:00N 57°00' E 011°47'816.1
2018-May-13 19:30N 56°53' E 011°54'816.0
2018-May-13 19:00N 56°46' E 012°00'3816.4
2018-May-13 16:41N 56°11' E 012°29'317.8
2018-May-13 16:30N 56°08' E 012°32'917.5
2018-May-13 16:00N 56°01' E 012°40'816.5
2018-May-13 15:30N 55°53' E 012°44'815.5
2018-May-13 15:00N 55°46' E 012°41'5 9.2
2018-May-13 14:30N 55°42' E 012°36'0 0.0
2018-May-13 14:00N 55°42' E 012°36'0 0.0
2018-May-13 13:29N 55°42' E 012°36'0 0.0
2018-May-13 12:59N 55°42' E 012°36'0 0.0
2018-May-13 12:29N 55°42' E 012°36'0 0.0
2018-May-13 11:59N 55°42' E 012°36'0 0.0
2018-May-13 11:29N 55°42' E 012°36'0 0.0
2018-May-13 10:59N 55°42' E 012°36'0 0.0
2018-May-13 10:26N 55°42' E 012°36'0 0.0
2018-May-13 09:59N 55°42' E 012°36'0 0.0
2018-May-13 09:29N 55°42' E 012°36'0 0.0
2018-May-13 08:59N 55°42' E 012°36'0 0.0
2018-May-13 08:29N 55°42' E 012°36'0 0.0
2018-May-13 07:59N 55°42' E 012°36'0 0.6
2018-May-13 07:30N 55°42' E 012°36'5 9.7
2018-May-13 07:01N 55°46' E 012°42'714.9
2018-May-13 06:30N 55°53' E 012°39'815.3
2018-May-13 06:00N 56°01' E 012°40'714.2
2018-May-13 05:30N 56°07' E 012°32'815.0
2018-May-13 04:58N 56°14' E 012°26'716.3
2018-May-13 04:30N 56°21' E 012°21'5617.1
2018-May-13 01:14N 57°14' E 011°51'417.1
2018-May-13 01:00N 57°18' E 011°48'816.8
2018-May-13 00:30N 57°25' E 011°40'816.9
2018-May-13 00:00N 57°32' E 011°32'917.6
2018-May-12 23:30N 57°41' E 011°27'917.5
2018-May-12 23:00N 57°49' E 011°22'816.4
2018-May-12 22:30N 57°56' E 011°15'815.7
2018-May-12 22:00N 58°03' E 011°09'815.8
2018-May-12 21:30N 58°11' E 011°04'815.9
2018-May-12 21:00N 58°19' E 011°00'816.0
2018-May-12 20:30N 58°26' E 010°56'815.8
2018-May-12 20:00N 58°34' E 010°51'815.8
2018-May-12 19:30N 58°41' E 010°45'815.9
2018-May-12 19:00N 58°49' E 010°43'816.0
2018-May-12 18:30N 58°57' E 010°41'816.4
2018-May-12 18:00N 59°05' E 010°39'816.5
2018-May-12 17:30N 59°13' E 010°38'816.2
2018-May-12 17:00N 59°21' E 010°35'815.8
2018-May-12 16:30N 59°29' E 010°34'713.3
2018-May-12 16:01N 59°35' E 010°38'713.4
2018-May-12 15:31N 59°42' E 010°35'815.2
2018-May-12 15:00N 59°49' E 010°34'713.5
2018-May-12 14:30N 59°54' E 010°44'0 0.6
2018-May-12 13:59N 59°54' E 010°45'0 0.0
2018-May-12 13:29N 59°54' E 010°45'0 0.0
2018-May-12 12:59N 59°54' E 010°45'0 0.0
2018-May-12 12:29N 59°54' E 010°45'0 0.0
2018-May-12 11:59N 59°54' E 010°45'0 0.0
2018-May-12 11:29N 59°54' E 010°45'0 0.0
2018-May-12 10:59N 59°54' E 010°45'0 0.0
2018-May-12 10:29N 59°54' E 010°45'0 0.0
2018-May-12 09:59N 59°54' E 010°45'0 0.0
2018-May-12 09:29N 59°54' E 010°45'0 0.0
2018-May-12 08:59N 59°54' E 010°45'0 0.0
2018-May-12 08:29N 59°54' E 010°45'0 0.0
2018-May-12 07:59N 59°54' E 010°45'0 0.9
2018-May-12 07:30N 59°54' E 010°44'714.2
2018-May-12 07:00N 59°49' E 010°35'714.1
2018-May-12 06:31N 59°42' E 010°36'713.5
2018-May-12 06:00N 59°35' E 010°38'815.8
2018-May-12 05:30N 59°27' E 010°34'816.1
2018-May-12 05:00N 59°19' E 010°36'816.4
2018-May-12 04:30N 59°11' E 010°39'816.1
2018-May-12 04:00N 59°03' E 010°38'815.9
2018-May-12 03:30N 58°55' E 010°36'815.9
2018-May-12 03:00N 58°47' E 010°35'816.6
2018-May-12 02:30N 58°39' E 010°36'816.9
2018-May-12 02:00N 58°31' E 010°37'816.6
2018-May-12 01:30N 58°23' E 010°42'816.4
2018-May-12 01:00N 58°15' E 010°48'816.5
2018-May-12 00:30N 58°07' E 010°53'816.3
2018-May-12 00:00N 57°60' E 010°58'816.6
2018-May-11 23:30N 57°52' E 011°04'816.3
2018-May-11 23:00N 57°45' E 011°13'815.7
2018-May-11 22:30N 57°39' E 011°20'816.0
2018-May-11 22:00N 57°31' E 011°24'815.9
2018-May-11 21:30N 57°24' E 011°30'815.9
2018-May-11 21:00N 57°16' E 011°34'816.4
2018-May-11 20:30N 57°08' E 011°40'816.5
2018-May-11 20:00N 57°01' E 011°46'816.5
2018-May-11 19:30N 56°53' E 011°52'816.2
2018-May-11 19:00N 56°46' E 011°59'816.4
2018-May-11 18:30N 56°39' E 012°06'816.1
2018-May-11 18:00N 56°32' E 012°13'1016.3
2018-May-11 17:23N 56°22' E 012°20'816.3
2018-May-11 16:52N 56°14' E 012°26'616.2
2018-May-11 16:30N 56°09' E 012°31'815.8
2018-May-11 16:00N 56°03' E 012°39'815.9
2018-May-11 15:30N 55°55' E 012°44'815.4
2018-May-11 15:00N 55°48' E 012°43'612.5
2018-May-11 14:30N 55°43' E 012°37'1 1.5
2018-May-11 14:00N 55°42' E 012°36'0 0.0
2018-May-11 13:30N 55°42' E 012°36'0 0.0
2018-May-11 13:00N 55°42' E 012°36'0 0.0
2018-May-11 12:30N 55°42' E 012°36'0 0.0
2018-May-11 12:00N 55°42' E 012°36'0 0.0
2018-May-11 11:30N 55°42' E 012°36'0 0.0
2018-May-11 11:00N 55°42' E 012°36'0 0.0
2018-May-11 10:30N 55°42' E 012°36'0 0.0
2018-May-11 10:00N 55°42' E 012°36'0 0.0
2018-May-11 09:30N 55°42' E 012°36'0 0.0
2018-May-11 09:00N 55°42' E 012°36'0 0.0
2018-May-11 08:27N 55°42' E 012°36'0 0.0
2018-May-11 08:00N 55°42' E 012°36'0 1.0
2018-May-11 07:30N 55°42' E 012°37'611.5
2018-May-11 07:01N 55°47' E 012°42'815.5
2018-May-11 06:31N 55°55' E 012°39'815.6
2018-May-11 06:01N 56°03' E 012°39'816.3
2018-May-11 05:30N 56°09' E 012°29'4016.1
2018-May-11 03:02N 56°46' E 012°06'016.4
2018-May-11 03:00N 56°47' E 012°06'2816.5
2018-May-11 01:18N 57°14' E 011°52'  

Dump ship's entire track history